Shady Hills, Florida
Current Conditions -  °F | °C
As of 4:53 AM on Wednesday 22 Oct 2014 (Local Time) from KBKV Reporting Station
NA  
Wind Chill: 62°   Ceiling: NA
Heat Index: 62°   Visibility: 10mi
Dew Point: 61°   Wind: 3mph
Humidity: 96%   Direction: 20°NNE
Pressure: 29.95"   Gusts: NA
Location:  28.3839°N, 82.4977°W
Report Text: KBKV 220853Z AUTO 02003KT 10SM 17/16 A2995 RMK AO2 SLP141 T01670161 55004 $
Loading
Personal Weather Stations






























Interactive Weather Map
Tropical Storm Tracking
New forecast layout! Learn more

10-Day Weather Forecast

Advertisements
Track Severe Weather on mobile